LZTT/TAT METAR and TAF weather

Enter ICAO airport designator
Station Type Date Time Source
LZTT METAR 2020/04/02 03:00 UTC NOAA

LZTT 020300Z 05004KT 020V080 CAVOK M07/M11 Q1014


Station Type Date Time Source
LZTT Decoded METAR 2020/04/02 03:00 UTC NOAA

Poprad / Tatry, Slovakia (LZTT) 49-04N 020-15E 695M
Apr 01, 2020 - 11:00 PM EDT / 2020.04.02 0300 UTC
Wind: from the NE (050 degrees) at 5 MPH (4 KT) (direction variable):0
Visibility: greater than 7 mile(s):0
Temperature: 19 F (-7 C)
Windchill: 12 F (-11 C):1
Dew Point: 12 F (-11 C)
Relative Humidity: 73%
Pressure (altimeter): 29.94 in. Hg (1014 hPa)
ob: LZTT 020300Z 05004KT 020V080 CAVOK M07/M11 Q1014
cycle: 3

Station Type Date Time Source
LZTT TAF 2020/04/01 18:39 UTC NOAA

TAF LZTT 011700Z 0118/0218 26008KT CAVOK
TEMPO 0120/0207 VRB02KT

Example: see airport list